Time;durP1;ratioP1;P1;durP2;ratioP2;P2;SDS_P1;SDS_P2;PMS_P1;PMS_P2;Temp;Humidity;BMP_temperature;BMP_pressure;BME280_temperature;BME280_humidity;BME280_pressure;Samples;Min_cycle;Max_cycle;Signal;HPM_P1;HPM_P2
2023/04/03 03:01:03;;;;;;;2.73;1.70;;;5.90;71.00;;;;;;5832231;23;20295;-71
2023/04/03 03:03:30;;;;;;;2.40;1.40;;;5.70;70.90;;;;;;4974727;28;20434;-71
2023/04/03 03:06:04;;;;;;;3.00;1.43;;;5.60;71.10;;;;;;4974599;28;20866;-72
2023/04/03 03:08:31;;;;;;;2.83;1.50;;;5.60;71.60;;;;;;4974538;28;20446;-72
2023/04/03 03:10:57;;;;;;;2.40;1.30;;;5.60;71.50;;;;;;4974449;28;20923;-75
2023/04/03 03:13:24;;;;;;;2.83;1.40;;;5.50;71.60;;;;;;4974661;28;20450;-75
2023/04/03 03:15:51;;;;;;;2.23;1.37;;;5.30;71.80;;;;;;4974902;28;20489;-75
2023/04/03 03:18:19;;;;;;;2.93;1.90;;;5.20;72.20;;;;;;4974122;28;21026;-75
2023/04/03 03:20:46;;;;;;;3.23;1.90;;;5.10;72.20;;;;;;4974360;28;20466;-75
2023/04/03 03:23:12;;;;;;;3.43;1.50;;;5.00;72.80;;;;;;4974385;28;20453;-75
2023/04/03 03:25:40;;;;;;;2.80;1.60;;;4.90;73.50;;;;;;4974304;28;20454;-75
2023/04/03 03:28:07;;;;;;;3.73;1.53;;;5.00;73.60;;;;;;4974741;28;20799;-75
2023/04/03 03:30:34;;;;;;;2.90;1.47;;;5.10;72.90;;;;;;4973870;28;20458;-74
2023/04/03 03:33:01;;;;;;;3.10;1.53;;;5.10;73.20;;;;;;4974238;28;20450;-75
2023/04/03 03:35:29;;;;;;;2.27;1.23;;;5.20;73.10;;;;;;4973898;28;20540;-75
2023/04/03 03:37:56;;;;;;;2.23;1.27;;;5.20;72.60;;;;;;4974227;28;20548;-75
2023/04/03 03:40:22;;;;;;;2.57;1.67;;;5.20;72.80;;;;;;4974156;28;20473;-74
2023/04/03 03:42:49;;;;;;;2.27;1.30;;;5.10;72.70;;;;;;4974211;28;20446;-75
2023/04/03 03:45:16;;;;;;;2.90;1.53;;;5.00;73.20;;;;;;4974105;28;20446;-75
2023/04/03 03:47:42;;;;;;;2.87;1.60;;;5.00;73.60;;;;;;4974118;28;20505;-75
2023/04/03 03:50:10;;;;;;;2.43;1.53;;;5.00;73.50;;;;;;4974384;28;20496;-75
2023/04/03 03:52:38;;;;;;;2.73;1.57;;;4.90;73.80;;;;;;4973769;28;20458;-75
2023/04/03 03:55:05;;;;;;;2.40;1.60;;;4.90;73.80;;;;;;4974244;28;20486;-75
2023/04/03 03:57:32;;;;;;;2.37;1.40;;;5.00;74.00;;;;;;4974054;28;20454;-75
2023/04/03 03:59:59;;;;;;;2.37;1.60;;;5.00;73.50;;;;;;4973999;28;20454;-75
2023/04/03 04:02:25;;;;;;;2.20;1.33;;;5.10;73.90;;;;;;4973855;28;20573;-74
2023/04/03 04:04:52;;;;;;;2.20;1.40;;;5.20;73.50;;;;;;4973976;28;20823;-75
2023/04/03 04:07:19;;;;;;;2.50;1.57;;;5.30;72.90;;;;;;4974332;28;20492;-75
2023/04/03 04:09:47;;;;;;;2.20;1.30;;;5.10;72.90;;;;;;4974691;28;20465;-75
2023/04/03 04:12:13;;;;;;;5.00;1.90;;;5.20;73.00;;;;;;4974968;28;20525;-75
2023/04/03 04:14:40;;;;;;;2.20;1.30;;;5.10;72.70;;;;;;4973733;28;20506;-75
2023/04/03 04:17:07;;;;;;;3.17;1.70;;;5.20;72.90;;;;;;4974117;28;20454;-75
2023/04/03 04:19:34;;;;;;;2.53;1.37;;;5.30;72.70;;;;;;4973549;28;20948;-75
2023/04/03 04:22:00;;;;;;;2.30;1.40;;;5.30;72.50;;;;;;4976732;28;20535;-74
2023/04/03 04:24:27;;;;;;;2.30;1.40;;;5.30;72.30;;;;;;4977255;28;20448;-74
2023/04/03 04:26:55;;;;;;;2.70;1.50;;;5.50;72.20;;;;;;4977243;28;20450;-74
2023/04/03 04:29:22;;;;;;;2.10;1.30;;;5.50;71.90;;;;;;4977199;28;20450;-74
2023/04/03 04:31:48;;;;;;;3.13;1.23;;;5.30;72.00;;;;;;4977390;28;20481;-75
2023/04/03 04:34:15;;;;;;;2.70;1.40;;;5.30;72.10;;;;;;4977183;28;20477;-75
2023/04/03 04:36:42;;;;;;;2.53;1.40;;;5.30;72.00;;;;;;4977209;28;20458;-75
2023/04/03 04:39:09;;;;;;;2.33;1.40;;;5.20;72.10;;;;;;4977124;28;20502;-75
2023/04/03 04:41:35;;;;;;;2.63;1.20;;;5.10;72.10;;;;;;4977054;28;20536;-75
2023/04/03 04:44:03;;;;;;;2.13;1.20;;;5.20;72.10;;;;;;4977274;28;20509;-75
2023/04/03 04:46:30;;;;;;;2.47;1.57;;;5.20;72.00;;;;;;4977222;28;20855;-75
2023/04/03 04:48:57;;;;;;;2.80;1.80;;;5.10;71.90;;;;;;4976700;28;20797;-75
2023/04/03 04:51:23;;;;;;;2.53;1.67;;;5.10;71.80;;;;;;4976905;28;20467;-74
2023/04/03 04:53:50;;;;;;;2.30;1.40;;;5.10;71.80;;;;;;4976482;28;20450;-74
2023/04/03 04:56:17;;;;;;;2.80;1.80;;;5.20;71.50;;;;;;4976465;28;20490;-74
2023/04/03 04:58:43;;;;;;;2.43;1.50;;;5.40;70.90;;;;;;4976113;28;20970;-74
2023/04/03 05:01:12;;;;;;;2.40;1.40;;;5.20;70.30;;;;;;4976399;28;20485;-74
2023/04/03 05:03:38;;;;;;;2.50;1.77;;;5.10;70.50;;;;;;4976334;28;20446;-74
2023/04/03 05:06:05;;;;;;;3.17;1.40;;;5.00;70.80;;;;;;4976325;28;20497;-74
2023/04/03 05:08:32;;;;;;;2.50;1.40;;;4.90;70.80;;;;;;4976708;28;20537;-75
2023/04/03 05:10:59;;;;;;;3.67;1.93;;;5.00;70.80;;;;;;4976270;28;20474;-75
2023/04/03 05:13:26;;;;;;;2.33;1.43;;;5.10;70.20;;;;;;4976285;28;20450;-75
2023/04/03 05:15:52;;;;;;;2.47;1.37;;;5.10;69.70;;;;;;4976125;28;20512;-74
2023/04/03 05:18:20;;;;;;;2.27;1.23;;;5.00;69.90;;;;;;4976328;28;20446;-74
2023/04/03 05:20:50;;;;;;;2.83;1.47;;;5.00;69.10;;;;;;4976147;28;20466;-75
2023/04/03 05:23:16;;;;;;;2.97;1.47;;;5.10;69.50;;;;;;4976286;28;20454;-74
2023/04/03 05:25:45;;;;;;;2.40;1.40;;;5.20;69.20;;;;;;4975971;28;20873;-75
2023/04/03 05:28:11;;;;;;;3.87;1.40;;;5.30;68.90;;;;;;4976078;28;20497;-75
2023/04/03 05:30:38;;;;;;;2.23;1.30;;;5.10;68.40;;;;;;4975857;28;20455;-74
2023/04/03 05:33:05;;;;;;;2.67;1.73;;;5.20;69.30;;;;;;4974474;28;20446;-74
2023/04/03 05:35:33;;;;;;;2.23;1.20;;;5.30;68.70;;;;;;4975799;28;20501;-74
2023/04/03 05:38:00;;;;;;;2.40;1.27;;;5.20;69.00;;;;;;4975889;28;20881;-73
2023/04/03 05:40:27;;;;;;;2.20;1.10;;;5.20;68.90;;;;;;4975698;28;20501;-74
2023/04/03 05:42:54;;;;;;;2.50;1.20;;;5.20;69.00;;;;;;4975852;28;20501;-74
2023/04/03 05:45:20;;;;;;;2.37;1.27;;;5.10;68.90;;;;;;4975769;28;20497;-74
2023/04/03 05:47:47;;;;;;;2.20;1.10;;;5.30;69.10;;;;;;4975775;28;20446;-74
2023/04/03 05:50:14;;;;;;;2.20;1.27;;;5.40;68.40;;;;;;4975688;28;20967;-74
2023/04/03 05:52:46;;;;;;;2.90;1.30;;;5.70;68.30;;;;;;4975351;28;20470;-74
2023/04/03 05:55:12;;;;;;;2.30;1.17;;;5.90;66.80;;;;;;4975353;28;20841;-75
2023/04/03 05:57:39;;;;;;;2.00;0.97;;;6.00;66.20;;;;;;4975783;28;20504;-75
2023/04/03 06:00:09;;;;;;;2.90;2.20;;;6.20;66.20;;;;;;4975605;28;20450;-74
2023/04/03 06:02:36;;;;;;;2.87;1.33;;;7.00;65.20;;;;;;4975174;28;20482;-75
2023/04/03 06:05:05;;;;;;;2.63;1.47;;;7.70;62.40;;;;;;4975583;28;20453;-75
2023/04/03 06:07:31;;;;;;;2.57;1.30;;;7.50;62.40;;;;;;4975461;28;20454;-75
2023/04/03 06:10:00;;;;;;;2.40;1.40;;;7.10;63.30;;;;;;4975419;28;20445;-74
2023/04/03 06:12:28;;;;;;;2.43;1.43;;;6.50;64.90;;;;;;4975241;28;20533;-75
2023/04/03 06:14:55;;;;;;;2.40;1.40;;;6.30;66.00;;;;;;4975213;28;20966;-75
2023/04/03 06:17:22;;;;;;;2.40;1.60;;;6.20;66.80;;;;;;4975036;28;20458;-75
2023/04/03 06:19:48;;;;;;;2.03;1.10;;;6.00;67.10;;;;;;4975274;28;20521;-74
2023/04/03 06:22:15;;;;;;;2.27;1.50;;;5.90;68.10;;;;;;4975165;28;20528;-74
2023/04/03 06:24:43;;;;;;;2.90;1.67;;;5.80;68.40;;;;;;4975390;28;20835;-74
2023/04/03 06:27:12;;;;;;;2.30;1.50;;;5.70;69.20;;;;;;4992654;28;20466;-73
2023/04/03 06:29:38;;;;;;;2.70;1.70;;;5.80;68.90;;;;;;4993111;28;20481;-74
2023/04/03 06:32:05;;;;;;;2.47;1.53;;;5.80;69.10;;;;;;4978813;28;20533;-74
2023/04/03 06:34:33;;;;;;;2.93;1.43;;;5.70;69.60;;;;;;4976178;28;20552;-74
2023/04/03 06:37:00;;;;;;;2.40;1.40;;;5.60;69.70;;;;;;4975172;28;20545;-74
2023/04/03 06:39:27;;;;;;;2.90;1.97;;;5.50;70.80;;;;;;4975345;28;20870;-75
2023/04/03 06:41:53;;;;;;;2.20;1.33;;;5.60;70.70;;;;;;4975682;28;20474;-75
2023/04/03 06:44:21;;;;;;;2.30;1.37;;;5.70;70.50;;;;;;4975653;28;20446;-76
2023/04/03 06:46:48;;;;;;;2.80;1.63;;;5.80;69.60;;;;;;4975274;28;20442;-75
2023/04/03 06:49:15;;;;;;;2.80;1.20;;;5.70;68.90;;;;;;4975637;28;20501;-76
2023/04/03 06:51:41;;;;;;;2.40;1.30;;;5.60;69.60;;;;;;4974730;28;20987;-76
2023/04/03 06:54:08;;;;;;;2.27;1.40;;;5.40;69.70;;;;;;4974984;28;20446;-76
2023/04/03 06:56:36;;;;;;;2.07;1.13;;;5.40;70.20;;;;;;4975009;28;21086;-75
2023/04/03 06:59:02;;;;;;;2.63;1.50;;;5.30;70.70;;;;;;4974627;28;20964;-74
2023/04/03 07:01:31;;;;;;;2.30;1.20;;;5.30;71.20;;;;;;4974833;28;20486;-75
2023/04/03 07:03:58;;;;;;;2.50;1.40;;;5.20;71.30;;;;;;4975326;28;20455;-75
2023/04/03 07:06:26;;;;;;;2.17;1.20;;;5.20;72.10;;;;;;4974371;28;20793;-75
2023/04/03 07:08:53;;;;;;;3.13;1.60;;;5.30;72.20;;;;;;4974717;28;20450;-75
2023/04/03 07:11:20;;;;;;;2.40;1.60;;;5.20;71.60;;;;;;4975026;28;20477;-75
2023/04/03 07:13:47;;;;;;;2.67;1.60;;;5.20;71.80;;;;;;4974850;28;20496;-75
2023/04/03 07:16:13;;;;;;;3.40;1.57;;;5.20;72.20;;;;;;4975023;28;20544;-75
2023/04/03 07:18:42;;;;;;;2.53;1.60;;;5.10;71.80;;;;;;4975095;28;20501;-75
2023/04/03 07:21:08;;;;;;;2.30;1.50;;;5.10;72.50;;;;;;4975025;28;20561;-74
2023/04/03 07:23:35;;;;;;;2.43;1.50;;;5.20;72.40;;;;;;4974790;28;20450;-75
2023/04/03 07:26:02;;;;;;;2.60;1.47;;;5.40;72.30;;;;;;4974656;28;20444;-75
2023/04/03 07:28:29;;;;;;;2.87;1.57;;;5.50;71.40;;;;;;4974704;28;20446;-75
2023/04/03 07:31:02;;;;;;;3.17;1.60;;;5.40;71.10;;;;;;4974647;28;20463;-75
2023/04/03 07:33:29;;;;;;;2.77;1.30;;;5.50;71.00;;;;;;4974409;28;20504;-74
2023/04/03 07:35:57;;;;;;;2.53;1.27;;;5.20;71.50;;;;;;4974455;28;20486;-75
2023/04/03 07:38:24;;;;;;;6.23;1.73;;;5.10;72.10;;;;;;4974417;28;20446;-75
2023/04/03 07:40:52;;;;;;;2.50;1.53;;;5.10;72.20;;;;;;4974640;28;20475;-75
2023/04/03 07:43:20;;;;;;;2.20;1.33;;;5.00;72.50;;;;;;4974530;28;20454;-75
2023/04/03 07:45:49;;;;;;;3.10;1.70;;;5.30;72.50;;;;;;4974305;28;20446;-75
2023/04/03 07:48:17;;;;;;;2.60;1.73;;;5.30;72.70;;;;;;4974269;28;20482;-75
2023/04/03 07:50:44;;;;;;;3.80;2.23;;;5.40;72.30;;;;;;4973913;28;20474;-74
2023/04/03 07:53:12;;;;;;;2.40;1.40;;;5.30;72.00;;;;;;4973868;28;20952;-74
2023/04/03 07:55:42;;;;;;;3.53;1.53;;;5.50;72.60;;;;;;4975187;28;20489;-74
2023/04/03 07:58:10;;;;;;;2.40;1.53;;;5.60;72.00;;;;;;4977812;28;20458;-75
2023/04/03 08:00:37;;;;;;;5.10;1.60;;;5.80;72.10;;;;;;4977668;28;20461;-74
2023/04/03 08:03:04;;;;;;;2.97;1.63;;;6.00;71.10;;;;;;4977735;28;20450;-74
2023/04/03 08:05:30;;;;;;;2.47;1.67;;;6.10;71.20;;;;;;4977615;28;20454;-75
2023/04/03 08:07:57;;;;;;;2.27;1.27;;;6.30;70.60;;;;;;4977599;28;20563;-75
2023/04/03 08:10:25;;;;;;;2.50;1.60;;;6.50;70.50;;;;;;4977506;28;20457;-75
2023/04/03 08:12:52;;;;;;;5.47;1.60;;;6.60;69.10;;;;;;4977417;28;20450;-75
2023/04/03 08:15:19;;;;;;;2.13;1.27;;;6.70;68.50;;;;;;4977443;28;20458;-74
2023/04/03 08:17:45;;;;;;;2.37;1.30;;;6.60;69.20;;;;;;4978091;28;20445;-74
2023/04/03 08:20:12;;;;;;;2.10;1.10;;;6.50;69.00;;;;;;4977789;28;20477;-74
2023/04/03 08:22:39;;;;;;;2.90;1.53;;;6.50;68.30;;;;;;4977545;28;20478;-74
2023/04/03 08:25:06;;;;;;;3.33;1.60;;;6.30;69.20;;;;;;4977582;28;20456;-75
2023/04/03 08:27:34;;;;;;;2.63;1.50;;;6.20;70.40;;;;;;4977538;28;20537;-74
2023/04/03 08:30:01;;;;;;;4.03;1.57;;;6.30;70.30;;;;;;4977612;28;20450;-74
2023/04/03 08:32:28;;;;;;;2.50;1.70;;;6.40;69.20;;;;;;4977690;28;20470;-74
2023/04/03 08:34:54;;;;;;;3.20;1.73;;;6.30;69.60;;;;;;4977736;28;20458;-74
2023/04/03 08:37:21;;;;;;;3.10;1.30;;;6.20;69.80;;;;;;4977237;28;20489;-75
2023/04/03 08:39:48;;;;;;;2.43;1.33;;;6.40;70.90;;;;;;4977457;28;20453;-74
2023/04/03 08:42:19;;;;;;;2.33;1.40;;;6.40;70.90;;;;;;4977460;28;20552;-75
2023/04/03 08:44:53;;;;;;;2.10;1.23;;;6.30;70.30;;;;;;4977222;28;20896;-74
2023/04/03 08:47:25;;;;;;;2.23;1.30;;;6.30;70.10;;;;;;4977514;28;20431;-75
2023/04/03 08:49:56;;;;;;;2.23;1.40;;;6.30;69.70;;;;;;4977009;28;20445;-75
2023/04/03 08:52:31;;;;;;;3.33;2.10;;;6.30;69.50;;;;;;4976633;28;20885;-75
2023/04/03 08:55:01;;;;;;;3.03;1.60;;;6.40;70.10;;;;;;4976902;28;20433;-75
2023/04/03 08:57:31;;;;;;;2.40;1.43;;;6.50;69.50;;;;;;4977950;28;20901;-75
2023/04/03 09:00:03;;;;;;;2.57;1.40;;;6.60;68.80;;;;;;4977094;28;20439;-75
2023/04/03 09:02:34;;;;;;;3.20;1.30;;;6.70;68.50;;;;;;4976700;28;20486;-75
2023/04/03 09:05:03;;;;;;;3.67;1.93;;;6.80;68.20;;;;;;4976700;28;20469;-75
2023/04/03 09:07:38;;;;;;;3.77;2.50;;;6.90;67.90;;;;;;4976230;28;20501;-75
2023/04/03 09:10:05;;;;;;;2.20;1.40;;;6.90;67.70;;;;;;4976578;28;20541;-74
2023/04/03 09:12:38;;;;;;;2.83;1.60;;;6.90;68.00;;;;;;4976409;28;20564;-75
2023/04/03 09:15:16;;;;;;;2.80;1.43;;;7.00;68.00;;;;;;4976974;28;20529;-74
2023/04/03 09:17:54;;;;;;;2.43;1.40;;;7.00;68.00;;;;;;4976276;28;20478;-75
2023/04/03 09:20:25;;;;;;;3.03;1.50;;;7.00;68.70;;;;;;4976725;28;20434;-73
2023/04/03 09:22:54;;;;;;;3.40;1.23;;;7.10;67.00;;;;;;4976515;28;20439;-75
2023/04/03 09:25:23;;;;;;;3.17;2.03;;;7.00;67.10;;;;;;4976848;28;20906;-74
2023/04/03 09:27:50;;;;;;;2.60;1.20;;;6.90;68.40;;;;;;4977421;28;20453;-74
2023/04/03 09:30:21;;;;;;;2.90;1.93;;;7.00;69.40;;;;;;4976238;28;20456;-74
2023/04/03 09:32:50;;;;;;;3.27;1.20;;;7.00;69.10;;;;;;4976101;28;20833;-75
2023/04/03 09:35:22;;;;;;;2.70;1.30;;;7.00;69.40;;;;;;4975903;28;20450;-75
2023/04/03 09:37:50;;;;;;;3.20;1.50;;;6.80;69.30;;;;;;4976944;28;20514;-75
2023/04/03 09:40:32;;;;;;;2.87;1.47;;;6.60;68.10;;;;;;4976238;28;20446;-75
2023/04/03 09:43:00;;;;;;;2.10;1.27;;;6.50;66.20;;;;;;4976303;28;20489;-75
2023/04/03 09:45:31;;;;;;;3.03;1.40;;;6.50;67.30;;;;;;4975938;28;20468;-75
2023/04/03 09:48:17;;;;;;;2.77;1.23;;;6.50;67.60;;;;;;4976003;28;20465;-74
2023/04/03 09:50:59;;;;;;;2.70;2.03;;;6.50;68.00;;;;;;4976025;28;20556;-75
2023/04/03 09:53:35;;;;;;;3.43;1.20;;;6.50;67.80;;;;;;4975749;28;20430;-75
2023/04/03 09:56:04;;;;;;;2.37;1.33;;;6.70;67.30;;;;;;4975412;28;20998;-74
2023/04/03 09:58:34;;;;;;;4.40;1.70;;;6.80;67.30;;;;;;4975798;28;20525;-75
2023/04/03 10:01:03;;;;;;;2.20;1.30;;;6.80;66.40;;;;;;4975485;28;20478;-74
2023/04/03 10:03:34;;;;;;;3.03;1.30;;;6.70;64.90;;;;;;4975570;28;20912;-76
2023/04/03 10:06:01;;;;;;;2.40;1.50;;;6.80;65.10;;;;;;4975560;28;20441;-74
2023/04/03 10:08:31;;;;;;;2.30;1.10;;;6.90;64.60;;;;;;4976356;28;20446;-75
2023/04/03 10:11:10;;;;;;;3.30;1.33;;;6.90;64.30;;;;;;4975357;28;20474;-75
2023/04/03 10:13:50;;;;;;;2.40;1.20;;;7.00;64.80;;;;;;4975304;28;20987;-75
2023/04/03 10:16:19;;;;;;;2.30;1.57;;;6.90;65.70;;;;;;4975653;28;20557;-76
2023/04/03 10:18:50;;;;;;;3.17;1.23;;;7.20;67.50;;;;;;4975414;28;20546;-75
2023/04/03 10:21:29;;;;;;;2.43;1.40;;;7.20;66.10;;;;;;4975675;28;21022;-75
2023/04/03 10:24:04;;;;;;;2.27;1.20;;;7.10;65.60;;;;;;4976133;28;20442;-76
2023/04/03 10:26:38;;;;;;;2.10;1.10;;;7.20;64.80;;;;;;4975936;28;20434;-75
2023/04/03 10:29:17;;;;;;;2.60;1.50;;;7.30;65.30;;;;;;4975895;28;20461;-73
2023/04/03 10:31:50;;;;;;;2.37;1.20;;;7.00;64.60;;;;;;4975645;28;20493;-75
2023/04/03 10:34:23;;;;;;;2.17;1.17;;;6.90;65.60;;;;;;4976016;28;20442;-75
2023/04/03 10:37:01;;;;;;;2.30;1.30;;;6.80;65.20;;;;;;4975650;28;20549;-74
2023/04/03 10:39:34;;;;;;;2.20;1.10;;;7.00;64.60;;;;;;4975621;28;20806;-75
2023/04/03 10:42:08;;;;;;;2.40;1.20;;;7.00;65.10;;;;;;4975457;28;20908;-75
2023/04/03 10:44:43;;;;;;;2.30;1.03;;;7.10;64.50;;;;;;4975427;28;20443;-74
2023/04/03 10:47:19;;;;;;;3.70;1.30;;;7.10;64.00;;;;;;4975663;28;20439;-74
2023/04/03 10:49:54;;;;;;;2.87;1.30;;;7.10;63.70;;;;;;4975319;28;20938;-74
2023/04/03 10:52:23;;;;;;;2.57;1.50;;;7.10;62.80;;;;;;4975131;28;20474;-76
2023/04/03 10:55:00;;;;;;;2.50;1.07;;;7.10;67.00;;;;;;4975695;28;20446;-74
2023/04/03 10:57:28;;;;;;;2.07;1.00;;;7.20;63.30;;;;;;4975804;28;20528;-75
2023/04/03 10:59:59;;;;;;;3.13;1.40;;;7.00;63.60;;;;;;4975597;28;20541;-74
2023/04/03 11:02:31;;;;;;;2.60;1.27;;;7.20;63.70;;;;;;4975587;28;20481;-74
2023/04/03 11:05:02;;;;;;;2.20;1.20;;;7.00;64.10;;;;;;4976138;28;20530;-74
2023/04/03 11:07:33;;;;;;;2.50;1.17;;;6.90;64.50;;;;;;4976583;28;20466;-75
2023/04/03 11:10:04;;;;;;;2.87;1.20;;;6.80;63.60;;;;;;4976982;28;20445;-74
2023/04/03 11:12:39;;;;;;;2.40;1.20;;;6.70;64.30;;;;;;4975629;28;20474;-74
2023/04/03 11:15:12;;;;;;;2.60;1.30;;;6.60;63.50;;;;;;4975441;28;20844;-75
2023/04/03 11:17:46;;;;;;;5.50;1.60;;;6.50;64.30;;;;;;4975640;28;20860;-74
2023/04/03 11:20:19;;;;;;;2.50;1.30;;;6.40;65.10;;;;;;4975908;28;20462;-73
2023/04/03 11:22:51;;;;;;;3.20;1.30;;;6.40;65.00;;;;;;4975591;28;20559;-74
2023/04/03 11:25:22;;;;;;;2.17;1.03;;;6.40;65.30;;;;;;4975134;28;20439;-75
2023/04/03 11:27:54;;;;;;;2.73;1.10;;;6.60;65.90;;;;;;4975050;28;20445;-74
2023/04/03 11:30:26;;;;;;;4.53;1.93;;;6.80;65.30;;;;;;4977491;28;20802;-75
2023/04/03 11:33:22;;;;;;;2.40;1.23;;;6.80;64.90;;;;;;4979101;28;20431;-75
2023/04/03 11:35:52;;;;;;;3.50;1.10;;;6.70;64.60;;;;;;4978487;28;20490;-75
2023/04/03 11:38:25;;;;;;;2.30;1.10;;;6.70;64.40;;;;;;4978882;28;20527;-74
2023/04/03 11:40:53;;;;;;;2.93;1.50;;;6.60;64.50;;;;;;4978841;28;21098;-76
2023/04/03 11:43:26;;;;;;;3.50;1.63;;;6.50;65.00;;;;;;4978486;28;21022;-74
2023/04/03 11:46:00;;;;;;;2.47;1.10;;;6.60;64.50;;;;;;4978510;28;20458;-75
2023/04/03 11:48:48;;;;;;;2.87;1.50;;;6.60;63.00;;;;;;4978673;28;20848;-75
2023/04/03 11:51:41;;;;;;;2.23;0.90;;;6.40;63.40;;;;;;4978265;28;20511;-75
2023/04/03 11:54:37;;;;;;;2.43;1.00;;;6.60;62.50;;;;;;4978477;28;20534;-74
2023/04/03 11:57:38;;;;;;;1.97;0.90;;;6.60;60.70;;;;;;4978321;28;21033;-74
2023/04/03 12:00:38;;;;;;;2.47;0.90;;;6.60;60.80;;;;;;4978232;28;20445;-74
2023/04/03 12:03:51;;;;;;;4.40;1.20;;;6.70;60.20;;;;;;4978017;28;20882;-74
2023/04/03 12:06:52;;;;;;;2.23;1.20;;;6.80;60.00;;;;;;4978039;28;20438;-74
2023/04/03 12:09:33;;;;;;;2.83;1.20;;;6.80;59.20;;;;;;4978376;28;20776;-74
2023/04/03 12:12:02;;;;;;;1.97;0.97;;;6.90;60.40;;;;;;4978065;28;20461;-73
2023/04/03 12:14:30;;;;;;;2.17;1.20;;;6.90;60.00;;;;;;4977707;28;20820;-74
2023/04/03 12:16:59;;;;;;;2.03;1.00;;;6.90;62.30;;;;;;4977624;28;21011;-74
2023/04/03 12:19:33;;;;;;;2.70;1.37;;;7.00;62.50;;;;;;4977733;28;20466;-74
2023/04/03 12:22:16;;;;;;;2.67;1.00;;;7.10;61.90;;;;;;4977380;28;20813;-73
2023/04/03 12:24:46;;;;;;;2.87;1.57;;;7.10;62.00;;;;;;4977770;28;20441;-73
2023/04/03 12:27:34;;;;;;;4.10;1.40;;;7.00;62.00;;;;;;4978509;28;20455;-73
2023/04/03 12:30:06;;;;;;;2.10;1.10;;;7.00;61.60;;;;;;4978315;28;20793;-74
2023/04/03 12:33:04;;;;;;;2.60;1.17;;;7.00;63.20;;;;;;4978117;28;20508;-73
2023/04/03 12:35:36;;;;;;;3.60;1.57;;;6.80;63.10;;;;;;4973060;28;20454;-74
2023/04/03 12:38:36;;;;;;;3.33;1.43;;;6.70;63.80;;;;;;4978753;28;20478;-74
2023/04/03 12:41:21;;;;;;;3.27;1.30;;;6.70;63.80;;;;;;4978259;28;20477;-74
2023/04/03 12:44:00;;;;;;;2.30;1.40;;;6.90;63.50;;;;;;4978982;28;20446;-75
2023/04/03 12:46:35;;;;;;;2.73;1.73;;;6.70;63.70;;;;;;4978255;28;20442;-75
2023/04/03 12:49:03;;;;;;;2.60;1.10;;;6.90;64.10;;;;;;4978532;28;20435;-74
2023/04/03 12:51:37;;;;;;;2.20;1.10;;;7.20;63.30;;;;;;4988570;28;20485;-73
2023/04/03 12:54:15;;;;;;;2.40;1.17;;;7.40;62.30;;;;;;4989184;28;20442;-74
2023/04/03 12:56:42;;;;;;;2.30;1.03;;;7.50;63.10;;;;;;4977591;28;20445;-74
2023/04/03 12:59:16;;;;;;;4.10;1.50;;;7.60;61.40;;;;;;4976909;28;20951;-74
2023/04/03 13:01:43;;;;;;;3.40;1.27;;;7.60;59.60;;;;;;4976741;28;20866;-75
2023/04/03 13:04:12;;;;;;;2.47;1.20;;;7.40;59.60;;;;;;4976963;28;20459;-75
2023/04/03 13:06:41;;;;;;;2.30;1.50;;;7.40;60.20;;;;;;4977314;28;20454;-74
2023/04/03 13:09:22;;;;;;;2.63;1.27;;;7.40;61.10;;;;;;4976926;28;20451;-73
2023/04/03 13:11:51;;;;;;;2.90;1.43;;;7.50;59.40;;;;;;4976837;28;20833;-74
2023/04/03 13:14:20;;;;;;;2.40;1.13;;;7.70;58.40;;;;;;4976878;28;20465;-74
2023/04/03 13:16:55;;;;;;;2.70;1.40;;;7.60;57.00;;;;;;4976482;28;20971;-74
2023/04/03 13:19:24;;;;;;;2.77;1.30;;;7.40;58.10;;;;;;4976952;28;20442;-74
2023/04/03 13:21:58;;;;;;;3.27;1.23;;;7.40;58.60;;;;;;4976411;28;20825;-74
2023/04/03 13:24:26;;;;;;;2.10;0.90;;;7.60;58.40;;;;;;4977084;28;20439;-75
2023/04/03 13:26:53;;;;;;;3.00;1.17;;;7.60;58.40;;;;;;4976814;28;20466;-74
2023/04/03 13:29:25;;;;;;;2.03;1.07;;;7.70;57.20;;;;;;4976432;28;20453;-74
2023/04/03 13:31:55;;;;;;;3.43;1.40;;;7.70;59.10;;;;;;4976864;28;20470;-74
2023/04/03 13:34:25;;;;;;;2.40;1.13;;;7.80;59.20;;;;;;4976247;28;20501;-74
2023/04/03 13:36:58;;;;;;;2.47;1.37;;;7.90;60.20;;;;;;4976693;28;20462;-74
2023/04/03 13:39:29;;;;;;;2.10;1.00;;;8.30;58.40;;;;;;4976381;28;20446;-74
2023/04/03 13:41:58;;;;;;;2.27;1.10;;;8.60;57.80;;;;;;4976184;28;20486;-74
2023/04/03 13:44:32;;;;;;;2.30;1.27;;;8.90;56.80;;;;;;4976372;28;20454;-75
2023/04/03 13:47:01;;;;;;;2.90;1.20;;;8.80;55.70;;;;;;4977036;28;20441;-74
2023/04/03 13:49:34;;;;;;;3.20;1.60;;;8.60;57.50;;;;;;4976426;28;20474;-74
2023/04/03 13:52:03;;;;;;;2.60;1.17;;;8.60;57.20;;;;;;4976215;28;20493;-74
2023/04/03 13:54:35;;;;;;;2.20;1.27;;;8.20;56.10;;;;;;4975817;28;20457;-74
2023/04/03 13:57:03;;;;;;;2.90;1.23;;;7.90;56.80;;;;;;4977759;28;20427;-73
2023/04/03 13:59:31;;;;;;;2.50;1.20;;;7.80;57.30;;;;;;4976548;28;20446;-75
2023/04/03 14:02:16;;;;;;;2.60;1.17;;;7.90;57.80;;;;;;4975452;28;20991;-73
2023/04/03 14:04:50;;;;;;;2.40;1.40;;;8.00;57.90;;;;;;4975240;28;20920;-73
2023/04/03 14:07:19;;;;;;;3.10;1.20;;;8.10;57.60;;;;;;4975473;28;20449;-75
2023/04/03 14:09:47;;;;;;;2.70;1.10;;;8.00;56.90;;;;;;4975357;28;20454;-74
2023/04/03 14:12:18;;;;;;;2.40;1.33;;;7.70;56.70;;;;;;4974887;28;20870;-74
2023/04/03 14:14:54;;;;;;;2.20;1.40;;;7.70;56.90;;;;;;5091063;28;20512;-75
2023/04/03 14:17:23;;;;;;;2.27;1.13;;;7.70;57.40;;;;;;5090524;28;20817;-75
2023/04/03 14:19:51;;;;;;;2.50;1.30;;;8.00;57.10;;;;;;5091170;28;20441;-75
2023/04/03 14:22:21;;;;;;;2.10;0.90;;;7.90;57.50;;;;;;5090644;28;20487;-76
2023/04/03 14:24:49;;;;;;;2.23;1.27;;;7.90;56.90;;;;;;5090290;28;20900;-74
2023/04/03 14:27:20;;;;;;;2.20;1.10;;;7.80;56.00;;;;;;5090799;28;20445;-75
2023/04/03 14:29:48;;;;;;;2.70;1.27;;;7.80;55.50;;;;;;5090747;28;20449;-75
2023/04/03 14:32:18;;;;;;;2.33;1.17;;;7.70;56.90;;;;;;5090771;28;20469;-75
2023/04/03 14:34:45;;;;;;;2.67;1.13;;;7.60;56.70;;;;;;5090475;28;20515;-75
2023/04/03 14:37:15;;;;;;;2.63;1.10;;;7.30;58.90;;;;;;5090405;28;20960;-75
2023/04/03 14:39:43;;;;;;;2.20;1.20;;;7.30;58.60;;;;;;5090175;28;20449;-75
2023/04/03 14:42:13;;;;;;;2.40;1.30;;;7.50;58.90;;;;;;5090411;28;20464;-75
2023/04/03 14:44:40;;;;;;;2.43;1.27;;;7.50;59.30;;;;;;5090403;28;20476;-74
2023/04/03 14:47:11;;;;;;;2.90;1.40;;;7.80;59.70;;;;;;5090223;28;20454;-75
2023/04/03 14:49:39;;;;;;;2.77;1.27;;;7.80;58.60;;;;;;5090577;28;20479;-75
2023/04/03 14:52:06;;;;;;;2.40;1.40;;;7.80;57.80;;;;;;5090141;28;20468;-75
2023/04/03 14:54:33;;;;;;;3.00;1.50;;;7.70;58.10;;;;;;5089719;28;20923;-75
2023/04/03 14:57:01;;;;;;;2.40;1.27;;;7.80;57.70;;;;;;5089654;28;20881;-75
2023/04/03 14:59:28;;;;;;;2.50;1.10;;;8.10;57.40;;;;;;5089900;28;20452;-75
2023/04/03 15:01:55;;;;;;;2.10;1.07;;;8.50;56.60;;;;;;5089502;28;20989;-75
2023/04/03 15:04:22;;;;;;;2.50;1.30;;;9.50;53.20;;;;;;5089467;28;20930;-76
2023/04/03 15:06:52;;;;;;;2.27;1.20;;;10.80;50.20;;;;;;5089512;28;20798;-76
2023/04/03 15:09:21;;;;;;;2.60;1.30;;;11.60;47.50;;;;;;5089653;28;20471;-75
2023/04/03 15:11:48;;;;;;;4.10;1.60;;;11.50;47.90;;;;;;5089744;28;20548;-75
2023/04/03 15:14:18;;;;;;;2.57;1.03;;;11.00;48.80;;;;;;5089530;28;20538;-76
2023/04/03 15:16:45;;;;;;;2.17;1.17;;;10.50;50.20;;;;;;5089664;28;20448;-75
2023/04/03 15:19:12;;;;;;;3.50;1.40;;;9.80;50.80;;;;;;5089508;28;20502;-75
2023/04/03 15:21:40;;;;;;;2.70;1.27;;;9.20;52.60;;;;;;5089313;28;20511;-75
2023/04/03 15:24:09;;;;;;;4.90;1.60;;;8.80;53.80;;;;;;5087722;28;20831;-75
2023/04/03 15:26:36;;;;;;;2.00;1.00;;;8.60;54.40;;;;;;5075542;28;20450;-75
2023/04/03 15:29:04;;;;;;;2.80;1.40;;;8.40;53.70;;;;;;5075789;28;20452;-79
2023/04/03 15:31:31;;;;;;;2.07;1.00;;;8.30;54.90;;;;;;5075656;28;20496;-75
2023/04/03 15:33:57;;;;;;;2.60;1.40;;;8.20;55.30;;;;;;5075671;28;20848;-75
2023/04/03 15:36:24;;;;;;;2.80;1.27;;;8.20;55.50;;;;;;5075519;28;20949;-75
2023/04/03 15:38:51;;;;;;;2.57;1.50;;;8.20;55.00;;;;;;5075812;28;20830;-75
2023/04/03 15:41:19;;;;;;;2.07;1.10;;;8.20;54.20;;;;;;5075625;28;20462;-75
2023/04/03 15:43:46;;;;;;;2.40;1.20;;;8.10;54.80;;;;;;5075615;28;20495;-76
2023/04/03 15:46:14;;;;;;;3.47;1.60;;;8.10;54.90;;;;;;5075455;28;20446;-75
2023/04/03 15:48:41;;;;;;;2.30;1.30;;;8.00;55.10;;;;;;5075560;28;20484;-76
2023/04/03 15:51:07;;;;;;;3.40;1.47;;;8.10;55.40;;;;;;5075480;28;20572;-75
2023/04/03 15:53:34;;;;;;;2.40;1.10;;;8.10;54.40;;;;;;5075451;28;20477;-75
2023/04/03 15:56:01;;;;;;;2.53;1.30;;;8.20;54.10;;;;;;5075397;28;20503;-75
2023/04/03 15:58:29;;;;;;;2.10;1.13;;;8.40;53.60;;;;;;5075276;28;20454;-75
2023/04/03 16:00:55;;;;;;;2.43;1.07;;;8.40;53.10;;;;;;5075111;28;20473;-75
2023/04/03 16:03:24;;;;;;;2.53;1.50;;;8.30;53.50;;;;;;5074953;28;20919;-75
2023/04/03 16:05:51;;;;;;;2.50;1.50;;;8.00;53.70;;;;;;5075259;28;20438;-75
2023/04/03 16:08:18;;;;;;;2.50;1.30;;;7.80;54.30;;;;;;5075171;28;20442;-75
2023/04/03 16:10:45;;;;;;;2.80;1.37;;;7.80;54.80;;;;;;5075165;28;20492;-75
2023/04/03 16:13:12;;;;;;;2.00;1.20;;;7.90;54.50;;;;;;5074740;28;20466;-75